Time;durP1;ratioP1;P1;durP2;ratioP2;P2;SDS_P1;SDS_P2;PMS_P1;PMS_P2;Temp;Humidity;BMP_temperature;BMP_pressure;BME280_temperature;BME280_humidity;BME280_pressure;Samples;Min_cycle;Max_cycle;Signal;HPM_P1;HPM_P2
2024/04/07 00:02:08;;;;;;;6.53;3.33;;;;;;;15.38;52.07;98397.91;4975499;28;103862;-63
2024/04/07 00:04:33;;;;;;;9.77;3.03;;;;;;;15.27;53.12;98387.84;4969990;28;102781;-63
2024/04/07 00:06:59;;;;;;;6.93;3.22;;;;;;;15.09;53.15;98378.63;4973281;28;103666;-64
2024/04/07 00:09:27;;;;;;;6.60;2.85;;;;;;;15.31;53.05;98373.06;4974573;28;103144;-63
2024/04/07 00:11:54;;;;;;;8.45;2.47;;;;;;;15.38;52.24;98365.06;4968771;28;102881;-62
2024/04/07 00:14:20;;;;;;;8.48;3.30;;;;;;;15.35;52.12;98366.31;4972612;28;102937;-62
2024/04/07 00:16:46;;;;;;;8.85;3.60;;;;;;;15.39;51.97;98366.72;4989079;28;103125;-63
2024/04/07 00:19:14;;;;;;;5.45;2.90;;;;;;;15.50;51.64;98363.41;4974392;28;103218;-63
2024/04/07 00:21:40;;;;;;;8.52;3.50;;;;;;;15.45;51.28;98367.75;4958135;28;102817;-62
2024/04/07 00:24:06;;;;;;;8.32;3.80;;;;;;;15.35;51.76;98366.31;4975928;28;102993;-63
2024/04/07 00:26:31;;;;;;;9.75;4.13;;;;;;;15.41;51.18;98368.13;4975574;28;103268;-63
2024/04/07 00:28:57;;;;;;;7.93;3.45;;;;;;;15.47;51.42;98363.84;4956192;28;103503;-62
2024/04/07 00:31:23;;;;;;;8.63;3.65;;;;;;;15.46;51.29;98361.34;4974922;28;102798;-63
2024/04/07 00:33:54;;;;;;;6.82;3.17;;;;;;;15.52;51.78;98349.84;4973282;28;103140;-64
2024/04/07 00:36:19;;;;;;;7.80;3.30;;;;;;;15.52;51.49;98355.19;4973660;28;103218;-63
2024/04/07 00:38:48;;;;;;;8.15;2.78;;;;;;;15.60;51.41;98352.28;4958009;28;105547;-63
2024/04/07 00:41:13;;;;;;;5.25;2.67;;;;;;;15.59;51.48;98356.00;4957310;28;102807;-62
2024/04/07 00:43:40;;;;;;;4.93;2.50;;;;;;;15.56;51.50;98351.06;4974553;28;102864;-63
2024/04/07 00:46:08;;;;;;;8.02;2.78;;;;;;;15.57;51.44;98358.88;4972787;28;103346;-63
2024/04/07 00:48:37;;;;;;;6.82;2.40;;;;;;;15.57;51.66;98353.53;4974994;28;103142;-63
2024/04/07 00:51:07;;;;;;;6.75;2.50;;;;;;;15.58;51.66;98349.03;4973002;28;102967;-63
2024/04/07 00:53:33;;;;;;;7.20;2.65;;;;;;;15.51;51.97;98348.22;4974103;28;103381;-63
2024/04/07 00:55:59;;;;;;;6.60;2.53;;;;;;;15.33;51.73;98352.34;4973952;28;102781;-63
2024/04/07 00:58:28;;;;;;;9.00;2.97;;;;;;;15.25;51.97;98349.91;4954595;28;104500;-63
2024/04/07 01:00:54;;;;;;;5.28;2.63;;;;;;;15.35;51.67;98355.66;4971864;28;103207;-62
2024/04/07 01:03:22;;;;;;;8.75;3.08;;;;;;;15.34;51.78;98348.66;4974480;28;102754;-63
2024/04/07 01:05:50;;;;;;;10.80;3.13;;;;;;;15.25;51.72;98342.72;4973650;28;104647;-62
2024/04/07 01:08:19;;;;;;;11.02;3.00;;;;;;;15.27;51.51;98345.16;4955372;28;103711;-63
2024/04/07 01:10:50;;;;;;;5.15;2.38;;;;;;;15.28;51.71;98344.16;4975496;28;104141;-62
2024/04/07 01:13:15;;;;;;;11.43;3.05;;;;;;;15.20;52.35;98344.38;4968583;28;102808;-63
2024/04/07 01:15:41;;;;;;;6.55;3.03;;;;;;;15.21;52.14;98343.31;4957866;28;105664;-62
2024/04/07 01:18:10;;;;;;;4.45;2.30;;;;;;;15.36;51.83;98343.91;4970636;28;103236;-62
2024/04/07 01:20:36;;;;;;;5.00;2.38;;;;;;;15.35;51.88;98344.97;4973275;28;102844;-63
2024/04/07 01:23:02;;;;;;;5.22;2.67;;;;;;;15.15;52.61;98360.97;4983623;28;102926;-62
2024/04/07 01:25:28;;;;;;;9.70;2.83;;;;;;;15.14;53.01;98359.34;4955159;28;106443;-63
2024/04/07 01:28:00;;;;;;;13.82;6.15;;;;;;;14.94;53.91;98359.34;4969440;28;104229;-63
2024/04/07 01:30:27;;;;;;;14.30;6.68;;;;;;;14.77;54.89;98352.78;4972954;28;102735;-63
2024/04/07 01:32:56;;;;;;;20.05;9.65;;;;;;;14.60;54.68;98353.13;4974011;28;103365;-63
2024/04/07 01:35:21;;;;;;;15.40;7.55;;;;;;;14.65;54.85;98355.22;4980946;28;103386;-62
2024/04/07 01:37:47;;;;;;;10.63;4.43;;;;;;;14.58;54.85;98361.34;4971063;28;103251;-63
2024/04/07 01:40:15;;;;;;;8.40;4.03;;;;;;;14.59;54.30;98362.13;4972097;28;102882;-62
2024/04/07 01:42:44;;;;;;;7.70;3.40;;;;;;;14.57;55.18;98369.53;4959941;28;104027;-63
2024/04/07 01:45:11;;;;;;;6.97;2.80;;;;;;;14.68;54.59;98366.28;4970978;28;108212;-63
2024/04/07 01:47:37;;;;;;;6.03;2.45;;;;;;;14.59;55.29;98372.81;4970496;28;105606;-62
2024/04/07 01:50:04;;;;;;;5.72;2.65;;;;;;;14.67;54.76;98370.00;4969263;28;106941;-63
2024/04/07 01:52:30;;;;;;;5.50;2.58;;;;;;;14.69;54.83;98359.94;4971925;28;103074;-62
2024/04/07 01:54:56;;;;;;;6.20;2.78;;;;;;;14.55;55.59;98367.06;4951093;28;105775;-63
2024/04/07 01:57:22;;;;;;;4.70;2.60;;;;;;;14.63;55.19;98363.38;4973236;28;103564;-63
2024/04/07 01:59:48;;;;;;;6.97;3.33;;;;;;;14.54;55.52;98360.09;4965548;28;102831;-63
2024/04/07 02:02:16;;;;;;;8.70;2.58;;;;;;;14.58;55.39;98360.50;4948771;28;102949;-63
2024/04/07 02:04:43;;;;;;;5.35;2.40;;;;;;;14.64;54.74;98346.41;4960404;28;103288;-63
2024/04/07 02:07:09;;;;;;;7.80;2.47;;;;;;;14.66;54.68;98352.34;4953844;28;106670;-63
2024/04/07 02:09:39;;;;;;;4.97;2.45;;;;;;;14.58;54.33;98356.00;4957835;28;103259;-63
2024/04/07 02:12:05;;;;;;;4.63;2.15;;;;;;;14.65;54.19;98350.72;4977709;28;103062;-63
2024/04/07 02:14:31;;;;;;;3.83;2.10;;;;;;;14.68;54.38;98355.63;4975852;28;103513;-62
2024/04/07 02:16:59;;;;;;;3.80;2.20;;;;;;;14.69;54.26;98346.59;4973570;28;103234;-63
2024/04/07 02:19:27;;;;;;;6.20;2.25;;;;;;;14.71;53.91;98355.22;4960420;28;103224;-62
2024/04/07 02:21:56;;;;;;;7.53;2.92;;;;;;;14.60;54.44;98361.94;4989844;28;102867;-62
2024/04/07 02:24:21;;;;;;;6.32;2.17;;;;;;;14.65;54.38;98349.91;4975162;28;106028;-62
2024/04/07 02:26:49;;;;;;;7.80;2.70;;;;;;;14.59;54.41;98352.31;4990614;28;103426;-62
2024/04/07 02:29:17;;;;;;;7.10;3.38;;;;;;;14.51;54.40;98347.16;4972971;28;102906;-62
2024/04/07 02:31:45;;;;;;;6.55;2.50;;;;;;;14.56;54.38;98358.03;4972133;28;102775;-62
2024/04/07 02:34:12;;;;;;;6.70;3.03;;;;;;;14.22;55.14;98358.97;4973645;28;108127;-62
2024/04/07 02:36:38;;;;;;;5.57;2.45;;;;;;;14.33;54.82;98363.75;4979319;28;104202;-63
2024/04/07 02:39:05;;;;;;;3.70;2.22;;;;;;;14.34;54.92;98367.22;4975981;28;103715;-62
2024/04/07 02:41:33;;;;;;;5.72;2.50;;;;;;;14.34;55.07;98361.88;4976298;28;103891;-62
2024/04/07 02:43:58;;;;;;;5.65;2.10;;;;;;;14.39;55.01;98362.91;4977324;28;104646;-63
2024/04/07 02:49:09;;;;;;;4.85;2.10;;;;;;;14.54;54.24;98364.59;4976901;28;102744;-63
2024/04/07 02:51:34;;;;;;;5.55;2.35;;;;;;;14.60;53.93;98369.13;4978265;28;103138;-62
2024/04/07 02:54:00;;;;;;;3.95;1.90;;;;;;;14.65;53.35;98372.03;4953981;28;103515;-63
2024/04/07 02:56:26;;;;;;;3.78;1.75;;;;;;;14.67;53.38;98385.16;4978056;28;103117;-63
2024/04/07 02:58:52;;;;;;;5.53;2.10;;;;;;;14.68;52.78;98381.47;4980267;28;103041;-63
2024/04/07 03:01:22;;;;;;;4.50;1.95;;;;;;;14.78;52.79;98386.38;4963335;28;102811;-62
2024/04/07 03:03:50;;;;;;;4.50;1.98;;;;;;;14.64;53.77;98389.03;4961506;28;105837;-63
2024/04/07 03:06:19;;;;;;;5.38;2.47;;;;;;;14.49;53.56;98383.88;4979938;28;103412;-62
2024/04/07 03:08:44;;;;;;;9.32;3.00;;;;;;;14.14;54.42;98385.81;4976165;28;102772;-63
2024/04/07 03:11:10;;;;;;;11.23;2.65;;;;;;;14.17;54.72;98390.72;4976511;28;102677;-63
2024/04/07 03:13:38;;;;;;;10.88;3.15;;;;;;;14.08;55.29;98393.56;4970005;28;104030;-62
2024/04/07 03:16:14;;;;;;;11.05;2.85;;;;;;;14.04;55.04;98402.97;4973550;28;103818;-63
2024/04/07 03:18:40;;;;;;;7.82;2.17;;;;;;;14.16;54.68;98403.22;4975519;28;102764;-63
2024/04/07 03:21:10;;;;;;;4.20;1.92;;;;;;;14.35;52.58;98401.63;4957615;28;102926;-63
2024/04/07 03:23:38;;;;;;;5.55;2.90;;;;;;;14.34;53.06;98405.31;4974501;28;103964;-63
2024/04/07 03:26:04;;;;;;;9.38;2.60;;;;;;;14.32;53.97;98417.19;4974765;28;103368;-62
2024/04/07 03:28:32;;;;;;;7.30;3.30;;;;;;;14.30;53.06;98413.94;4940125;28;103456;-63
2024/04/07 03:31:01;;;;;;;8.45;2.65;;;;;;;14.38;53.49;98427.06;4958121;28;102788;-62
2024/04/07 03:33:27;;;;;;;3.90;1.85;;;;;;;14.48;52.91;98418.72;4973434;28;105558;-63
2024/04/07 03:36:05;;;;;;;5.63;1.85;;;;;;;14.47;54.27;98428.53;4960029;28;105721;-62
2024/04/07 03:38:31;;;;;;;8.90;2.35;;;;;;;14.19;55.80;98418.78;4981042;28;103352;-63
2024/04/07 03:40:57;;;;;;;4.05;1.70;;;;;;;14.24;55.16;98432.34;4978303;28;103269;-63
2024/04/07 03:43:25;;;;;;;4.22;1.60;;;;;;;14.13;56.09;98438.22;4958885;28;103382;-62
2024/04/07 03:45:59;;;;;;;4.10;1.80;;;;;;;14.00;55.93;98444.28;4960423;28;105256;-63
2024/04/07 03:48:24;;;;;;;5.40;2.22;;;;;;;14.06;55.36;98446.19;4959305;28;102760;-63
2024/04/07 03:50:53;;;;;;;5.65;2.03;;;;;;;14.02;56.13;98447.59;4977159;28;102750;-63
2024/04/07 03:53:18;;;;;;;3.22;1.92;;;;;;;13.91;56.54;98453.47;4962252;28;103216;-63
2024/04/07 03:55:47;;;;;;;9.15;4.65;;;;;;;13.60;56.39;98454.72;4973166;28;103180;-62
2024/04/07 03:58:13;;;;;;;16.38;8.00;;;;;;;13.41;57.95;98454.38;4959332;28;102710;-63
2024/04/07 04:00:39;;;;;;;9.20;4.82;;;;;;;13.29;57.92;98468.34;4977929;28;104737;-63
2024/04/07 04:03:06;;;;;;;10.50;5.82;;;;;;;13.12;58.40;98478.41;4940983;28;103622;-63
2024/04/07 04:05:34;;;;;;;8.98;4.38;;;;;;;13.01;58.78;98472.59;4955578;28;104855;-62
2024/04/07 04:08:02;;;;;;;16.17;6.20;;;;;;;13.20;57.91;98491.56;4976537;28;103123;-63
2024/04/07 04:10:28;;;;;;;11.20;4.72;;;;;;;13.01;58.45;98499.16;4973459;28;102768;-63
2024/04/07 04:12:54;;;;;;;14.15;8.02;;;;;;;13.02;58.42;98507.97;4970519;28;104850;-63
2024/04/07 04:15:20;;;;;;;20.27;10.68;;;;;;;12.88;59.10;98510.47;4976189;28;103345;-62
2024/04/07 04:17:45;;;;;;;18.90;9.00;;;;;;;13.21;57.75;98509.19;4971993;28;102885;-62
2024/04/07 04:20:11;;;;;;;10.45;5.70;;;;;;;13.27;57.51;98511.09;4954169;28;102684;-62
2024/04/07 04:22:37;;;;;;;29.55;14.25;;;;;;;13.20;57.58;98503.03;4974907;28;103146;-62
2024/04/07 04:25:03;;;;;;;24.75;10.68;;;;;;;13.28;57.59;98510.06;4974266;28;103326;-62
2024/04/07 04:27:29;;;;;;;12.60;5.00;;;;;;;13.46;57.34;98517.63;4971550;28;105617;-62
2024/04/07 04:29:55;;;;;;;9.75;5.47;;;;;;;13.56;57.40;98519.97;4938640;28;102750;-62
2024/04/07 04:32:20;;;;;;;8.95;3.65;;;;;;;13.55;56.95;98520.97;4977198;28;103296;-62
2024/04/07 04:34:46;;;;;;;7.03;3.55;;;;;;;13.57;57.09;98530.41;4956246;28;105346;-63
2024/04/07 04:37:12;;;;;;;8.73;2.50;;;;;;;13.39;58.40;98528.22;4990900;28;104084;-62
2024/04/07 04:39:38;;;;;;;8.82;2.40;;;;;;;13.34;58.31;98530.59;4957084;28;102846;-63
2024/04/07 04:42:04;;;;;;;5.60;2.50;;;;;;;12.93;61.04;98533.84;4954800;28;104605;-63
2024/04/07 04:44:30;;;;;;;13.32;4.68;;;;;;;12.95;60.23;98542.44;4976862;28;103214;-63
2024/04/07 04:46:55;;;;;;;15.68;7.63;;;;;;;13.10;59.89;98548.56;4955236;28;102850;-62
2024/04/07 04:49:21;;;;;;;15.52;5.97;;;;;;;13.25;59.18;98545.03;4986744;28;102796;-63
2024/04/07 04:51:48;;;;;;;12.60;4.85;;;;;;;13.15;61.10;98547.97;4971976;28;103594;-62
2024/04/07 04:54:17;;;;;;;9.27;4.07;;;;;;;13.17;60.46;98550.47;4974045;28;106186;-62
2024/04/07 04:56:42;;;;;;;9.68;4.35;;;;;;;12.96;61.36;98548.59;4975216;28;102877;-70
2024/04/07 04:59:08;;;;;;;13.93;5.35;;;;;;;13.08;60.43;98553.22;4975494;28;103075;-69
2024/04/07 05:01:34;;;;;;;16.60;6.55;;;;;;;13.18;59.97;98557.41;4976464;28;103597;-69
2024/04/07 05:03:59;;;;;;;21.48;7.28;;;;;;;13.26;59.87;98560.78;4975136;28;103731;-68
2024/04/07 05:06:26;;;;;;;18.50;6.95;;;;;;;13.06;61.38;98557.91;4976679;28;102706;-68
2024/04/07 05:08:52;;;;;;;30.77;10.68;;;;;;;12.69;62.68;98570.34;4970193;28;102781;-62
2024/04/07 05:11:18;;;;;;;12.73;4.57;;;;;;;12.47;63.34;98565.97;4973576;28;103243;-62
2024/04/07 05:13:44;;;;;;;9.43;3.85;;;;;;;12.57;62.95;98572.63;4989432;28;103104;-62
2024/04/07 05:16:12;;;;;;;12.95;4.00;;;;;;;12.84;61.51;98582.78;4976413;28;102754;-63
2024/04/07 05:18:41;;;;;;;6.65;3.03;;;;;;;12.93;61.42;98587.00;4974627;28;103094;-62
2024/04/07 05:21:10;;;;;;;8.43;2.83;;;;;;;12.59;63.42;98593.75;4953009;28;105368;-62
2024/04/07 05:23:39;;;;;;;5.80;2.53;;;;;;;12.84;62.60;98598.72;4974394;28;105762;-62
2024/04/07 05:26:10;;;;;;;10.35;3.30;;;;;;;12.84;62.57;98599.56;4973772;28;102707;-62
2024/04/07 05:28:36;;;;;;;7.93;2.83;;;;;;;12.94;61.80;98601.94;4974267;28;102722;-62
2024/04/07 05:31:04;;;;;;;4.43;2.42;;;;;;;12.97;61.92;98612.22;4959161;28;103478;-62
2024/04/07 05:33:31;;;;;;;7.57;2.40;;;;;;;12.83;61.86;98602.44;4979533;28;103138;-62
2024/04/07 05:35:57;;;;;;;5.97;1.95;;;;;;;12.72;62.09;98609.84;4977592;28;102833;-62
2024/04/07 05:38:23;;;;;;;10.18;2.75;;;;;;;12.96;62.47;98607.91;4960836;28;103167;-62
2024/04/07 05:41:01;;;;;;;7.70;2.63;;;;;;;13.02;62.33;98609.81;4961674;28;103763;-62
2024/04/07 05:43:27;;;;;;;6.20;2.83;;;;;;;13.06;61.94;98610.25;4975396;28;103619;-62
2024/04/07 05:45:53;;;;;;;8.90;3.13;;;;;;;12.98;63.08;98616.50;4975453;28;103887;-62
2024/04/07 05:48:23;;;;;;;8.25;2.92;;;;;;;13.05;62.28;98620.06;4963099;28;110395;-62
2024/04/07 05:50:49;;;;;;;4.13;2.40;;;;;;;13.20;61.23;98630.66;4959084;28;103815;-62
2024/04/07 05:53:15;;;;;;;9.73;2.97;;;;;;;12.56;64.59;98647.22;4953915;28;104000;-62
2024/04/07 05:55:41;;;;;;;6.05;2.80;;;;;;;12.84;63.01;98633.28;4958537;28;102848;-62
2024/04/07 05:58:07;;;;;;;5.45;2.50;;;;;;;12.85;63.48;98637.59;4975023;28;102834;-62
2024/04/07 06:00:36;;;;;;;5.90;3.08;;;;;;;12.47;65.05;98648.31;4961751;28;104497;-62
2024/04/07 06:03:02;;;;;;;8.43;2.55;;;;;;;12.44;65.59;98652.16;4973751;28;105245;-61
2024/04/07 06:05:32;;;;;;;6.95;2.30;;;;;;;12.86;62.98;98649.88;4974230;28;102787;-62
2024/04/07 06:07:59;;;;;;;9.27;2.45;;;;;;;13.08;62.48;98658.75;4973793;28;102687;-62
2024/04/07 06:10:24;;;;;;;5.53;2.50;;;;;;;13.22;62.53;98659.75;4960169;28;105535;-61
2024/04/07 06:12:51;;;;;;;8.90;2.58;;;;;;;12.67;66.06;98664.53;4956701;28;105329;-62
2024/04/07 06:15:20;;;;;;;6.47;2.25;;;;;;;12.82;64.82;98669.88;4984690;28;102769;-61
2024/04/07 06:17:49;;;;;;;6.55;2.40;;;;;;;13.19;63.50;98670.75;4960443;28;102891;-61
2024/04/07 06:20:15;;;;;;;5.85;2.00;;;;;;;13.55;61.85;98676.13;4971993;28;103552;-69
2024/04/07 06:22:41;;;;;;;5.20;2.53;;;;;;;13.44;63.50;98684.59;4972992;28;103249;-69
2024/04/07 06:25:10;;;;;;;4.75;2.22;;;;;;;13.43;63.44;98686.44;4962281;28;102731;-69
2024/04/07 06:27:36;;;;;;;5.93;2.58;;;;;;;13.51;64.51;98690.81;4978975;28;102776;-70
2024/04/07 06:30:03;;;;;;;7.00;2.13;;;;;;;13.61;63.00;98695.81;4960536;28;106842;-69
2024/04/07 06:32:29;;;;;;;2.83;1.60;;;;;;;13.93;61.68;98699.84;4994040;28;104084;-69
2024/04/07 06:34:57;;;;;;;10.07;2.80;;;;;;;13.99;62.20;98700.94;4976063;28;102898;-69
2024/04/07 06:37:25;;;;;;;4.88;2.55;;;;;;;14.16;61.33;98698.00;4980526;28;103233;-68
2024/04/07 06:39:51;;;;;;;6.80;2.53;;;;;;;14.27;61.27;98697.50;4977781;28;103470;-69
2024/04/07 06:42:30;;;;;;;6.95;3.25;;;;;;;14.20;61.23;98712.59;4980786;28;103807;-70
2024/04/07 06:44:59;;;;;;;7.25;3.28;;;;;;;14.07;62.29;98711.47;4962400;28;103848;-70
2024/04/07 06:47:26;;;;;;;9.30;2.90;;;;;;;13.80;62.34;98728.19;4965192;28;103118;-70
2024/04/07 06:49:54;;;;;;;8.27;2.70;;;;;;;14.18;62.79;98727.97;4976781;28;105299;-69
2024/04/07 06:52:21;;;;;;;5.28;2.58;;;;;;;14.50;61.19;98715.09;4960746;28;105723;-70
2024/04/07 06:54:47;;;;;;;8.85;3.10;;;;;;;14.34;62.26;98717.03;4963068;28;102701;-69
2024/04/07 06:57:14;;;;;;;11.98;2.97;;;;;;;14.59;61.14;98713.94;4977577;28;102770;-70
2024/04/07 06:59:40;;;;;;;5.60;2.67;;;;;;;14.77;60.50;98726.81;4975975;28;103708;-70
2024/04/07 07:02:06;;;;;;;7.15;3.08;;;;;;;14.70;60.64;98741.97;4980768;28;105478;-70
2024/04/07 07:04:32;;;;;;;6.68;2.28;;;;;;;14.96;59.75;98741.31;4951075;28;102680;-62
2024/04/07 07:07:00;;;;;;;3.75;2.17;;;;;;;15.58;58.36;98749.44;4988204;28;102910;-59
2024/04/07 07:09:27;;;;;;;7.35;3.05;;;;;;;15.73;58.78;98757.28;4975640;28;103704;-62
2024/04/07 07:11:53;;;;;;;8.45;3.47;;;;;;;15.94;58.25;98753.66;4972130;28;103107;-62
2024/04/07 07:14:19;;;;;;;4.28;2.67;;;;;;;16.11;57.81;98747.97;4958079;28;102891;-62
2024/04/07 07:16:45;;;;;;;7.55;3.55;;;;;;;16.29;56.90;98745.53;4976416;28;102816;-62
2024/04/07 07:19:10;;;;;;;8.43;3.33;;;;;;;16.46;56.46;98745.94;4961391;28;103256;-62
2024/04/07 07:21:36;;;;;;;6.38;3.42;;;;;;;16.35;57.04;98750.06;4958114;28;102787;-62
2024/04/07 07:24:02;;;;;;;9.90;3.78;;;;;;;16.35;56.57;98754.56;4979186;28;103169;-68
2024/04/07 07:26:30;;;;;;;6.45;3.30;;;;;;;16.50;56.78;98755.19;4979497;28;103064;-68
2024/04/07 07:28:56;;;;;;;6.80;2.80;;;;;;;16.96;55.97;98737.50;4974846;28;103709;-68
2024/04/07 07:31:22;;;;;;;5.28;2.47;;;;;;;17.19;55.16;98745.06;4978192;28;103100;-68
2024/04/07 07:33:48;;;;;;;5.18;2.67;;;;;;;17.22;54.90;98754.53;4975880;28;102918;-68
2024/04/07 07:36:13;;;;;;;7.35;2.72;;;;;;;17.44;54.67;98756.97;4955054;28;103622;-67
2024/04/07 07:38:41;;;;;;;7.45;2.92;;;;;;;17.66;54.40;98755.63;4962502;28;103471;-68
2024/04/07 07:41:07;;;;;;;7.10;3.03;;;;;;;17.79;54.18;98770.81;4971571;28;105871;-63
2024/04/07 07:43:33;;;;;;;8.13;2.95;;;;;;;17.99;53.07;98768.06;4968303;28;102857;-62
2024/04/07 07:46:02;;;;;;;7.70;2.75;;;;;;;18.00;52.58;98763.50;4971025;28;102760;-63
2024/04/07 07:48:27;;;;;;;7.35;2.55;;;;;;;18.18;52.49;98762.78;4969830;28;104873;-63
2024/04/07 07:50:53;;;;;;;7.45;2.75;;;;;;;18.42;51.50;98773.78;4974817;28;103782;-62
2024/04/07 07:53:21;;;;;;;6.57;2.42;;;;;;;18.62;51.63;98771.78;4969397;28;103040;-63
2024/04/07 07:55:54;;;;;;;9.32;2.80;;;;;;;18.89;48.66;98774.25;4952032;28;102763;-63
2024/04/07 07:58:19;;;;;;;11.98;2.10;;;;;;;19.30;48.68;98783.56;4970581;28;103973;-63
2024/04/07 08:00:47;;;;;;;4.65;1.80;;;;;;;19.27;48.44;98781.34;4955568;28;105490;-67
2024/04/07 08:03:15;;;;;;;4.90;1.92;;;;;;;19.26;47.37;98794.94;4954344;28;104137;-68
2024/04/07 08:05:41;;;;;;;13.50;1.92;;;;;;;19.09;46.51;98800.06;4961860;28;103240;-68
2024/04/07 08:08:06;;;;;;;6.10;1.58;;;;;;;19.19;46.58;98795.03;4931174;28;105290;-68
2024/04/07 08:10:32;;;;;;;11.13;2.13;;;;;;;19.32;46.70;98794.06;4972781;28;103222;-69
2024/04/07 08:12:58;;;;;;;6.40;1.52;;;;;;;19.77;46.93;98801.84;4986770;28;102889;-68
2024/04/07 08:15:26;;;;;;;5.78;1.10;;;;;;;20.21;45.05;98801.69;4973564;28;103227;-68
2024/04/07 08:17:52;;;;;;;12.45;1.50;;;;;;;19.61;45.00;98803.28;4972106;28;103617;-69
2024/04/07 08:20:18;;;;;;;6.82;2.15;;;;;;;19.56;45.43;98811.19;4960048;28;104836;-69
2024/04/07 08:22:44;;;;;;;6.90;1.58;;;;;;;19.64;45.91;98820.81;4971956;28;102764;-69
2024/04/07 08:25:10;;;;;;;10.82;1.90;;;;;;;19.83;45.18;98827.84;4973285;28;102995;-68
2024/04/07 08:27:37;;;;;;;10.90;2.50;;;;;;;19.90;44.96;98832.31;4955745;28;104490;-69
2024/04/07 08:30:03;;;;;;;8.48;1.95;;;;;;;19.53;44.98;98839.31;4956584;28;103545;-68
2024/04/07 08:32:29;;;;;;;6.88;1.55;;;;;;;19.50;45.79;98833.56;4975757;28;102722;-69
2024/04/07 08:34:54;;;;;;;7.13;1.70;;;;;;;19.78;44.99;98829.50;4967850;28;102780;-69
2024/04/07 08:37:20;;;;;;;6.57;1.60;;;;;;;19.44;45.15;98834.44;4957449;28;104466;-69
2024/04/07 08:39:46;;;;;;;9.77;1.48;;;;;;;19.66;45.14;98830.28;4973137;28;103167;-68
2024/04/07 08:42:15;;;;;;;8.50;1.52;;;;;;;19.57;44.96;98834.28;4962642;28;102689;-64
2024/04/07 08:44:43;;;;;;;8.70;1.60;;;;;;;19.43;44.73;98833.63;4975747;28;103315;-68
2024/04/07 08:47:12;;;;;;;9.38;2.10;;;;;;;19.56;45.30;98829.97;4976267;28;103374;-68
2024/04/07 08:49:38;;;;;;;7.43;1.85;;;;;;;19.71;45.32;98830.41;4973919;28;106094;-69
2024/04/07 08:52:08;;;;;;;13.50;2.42;;;;;;;20.13;44.06;98827.03;4971841;28;102711;-68
2024/04/07 08:54:34;;;;;;;8.50;1.70;;;;;;;20.05;44.22;98841.59;4968223;28;103074;-63
2024/04/07 08:57:08;;;;;;;10.98;1.73;;;;;;;19.90;43.53;98838.50;4953081;28;103529;-63
2024/04/07 08:59:35;;;;;;;8.73;1.50;;;;;;;20.20;43.71;98832.31;4972887;28;103340;-63
2024/04/07 09:02:08;;;;;;;4.43;1.10;;;;;;;20.92;43.01;98839.59;4969708;28;104356;-63
2024/04/07 09:04:34;;;;;;;4.63;1.23;;;;;;;21.25;42.72;98829.28;4956618;28;102786;-64
2024/04/07 09:07:08;;;;;;;9.00;1.63;;;;;;;21.19;42.22;98837.22;4958839;28;105731;-63
2024/04/07 09:09:36;;;;;;;5.50;1.50;;;;;;;21.67;41.37;98829.97;4968592;28;103471;-64
2024/04/07 09:12:03;;;;;;;9.57;1.60;;;;;;;21.70;41.46;98832.19;4974002;28;102785;-69
2024/04/07 09:14:32;;;;;;;7.50;1.20;;;;;;;22.45;40.15;98836.88;4976109;28;102936;-69
2024/04/07 09:17:07;;;;;;;9.85;1.70;;;;;;;22.43;38.85;98841.69;4952396;28;103526;-64
2024/04/07 09:19:35;;;;;;;4.93;1.75;;;;;;;22.96;38.64;98837.72;4955909;28;103839;-65
2024/04/07 09:22:03;;;;;;;8.20;1.80;;;;;;;22.65;39.61;98848.03;4971468;28;103038;-69
2024/04/07 09:24:30;;;;;;;6.97;1.38;;;;;;;22.61;39.06;98832.56;4953498;28;103756;-69
2024/04/07 09:27:05;;;;;;;6.35;1.50;;;;;;;22.10;38.60;98827.88;4963150;28;103927;-69
2024/04/07 09:29:37;;;;;;;8.88;1.55;;;;;;;22.29;38.75;98831.16;4970318;28;104099;-69
2024/04/07 09:32:04;;;;;;;8.13;1.70;;;;;;;22.40;39.11;98831.38;4970053;28;103101;-69
2024/04/07 09:34:31;;;;;;;12.25;2.13;;;;;;;22.41;39.27;98838.44;4970302;28;102824;-69
2024/04/07 09:37:00;;;;;;;7.07;1.50;;;;;;;22.74;38.72;98842.22;4969596;28;103431;-64
2024/04/07 09:39:26;;;;;;;7.75;1.77;;;;;;;22.56;39.28;98840.56;4972397;28;105463;-65
2024/04/07 09:41:56;;;;;;;12.02;1.98;;;;;;;22.27;39.47;98846.78;4972047;28;102728;-64
2024/04/07 09:44:22;;;;;;;9.43;1.85;;;;;;;22.38;39.32;98839.72;4983197;28;103896;-64
2024/04/07 09:46:48;;;;;;;10.75;2.45;;;;;;;22.52;40.03;98829.47;4972767;28;103508;-69
2024/04/07 09:49:14;;;;;;;4.97;1.60;;;;;;;22.27;40.16;98827.06;4968721;28;103508;-69
2024/04/07 09:51:52;;;;;;;7.55;1.73;;;;;;;21.66;40.01;98833.72;4972453;28;103076;-69
2024/04/07 09:54:29;;;;;;;9.40;1.58;;;;;;;22.19;40.08;98841.75;4976138;28;102729;-69
2024/04/07 09:56:57;;;;;;;11.60;1.80;;;;;;;22.55;39.72;98833.56;4965062;28;103428;-69
2024/04/07 09:59:23;;;;;;;8.77;1.73;;;;;;;22.57;40.11;98826.03;4973768;28;103121;-70
2024/04/07 10:01:49;;;;;;;7.18;1.73;;;;;;;22.34;39.87;98828.56;4951124;28;102740;-69
2024/04/07 10:04:17;;;;;;;8.52;1.63;;;;;;;23.02;39.90;98834.06;4969441;28;102767;-70
2024/04/07 10:06:43;;;;;;;7.65;1.75;;;;;;;23.34;39.20;98835.34;4930017;28;106120;-69
2024/04/07 10:09:10;;;;;;;13.05;1.88;;;;;;;23.56;37.38;98829.97;4956301;28;110448;-70
2024/04/07 10:11:47;;;;;;;9.88;2.08;;;;;;;23.42;37.85;98836.81;4954019;28;103239;-70
2024/04/07 10:14:15;;;;;;;5.63;1.67;;;;;;;22.56;39.80;98837.88;4968548;28;103151;-69
2024/04/07 10:16:48;;;;;;;9.13;3.35;;;;;;;22.51;39.88;98833.22;4967409;28;103317;-70
2024/04/07 10:19:32;;;;;;;11.15;4.22;;;;;;;23.42;41.74;98832.22;4970056;28;109258;-70
2024/04/07 10:21:57;;;;;;;11.20;5.65;;;;;;;24.20;37.46;98836.72;4973441;28;102920;-69
2024/04/07 10:24:25;;;;;;;8.20;4.03;;;;;;;24.65;37.40;98829.34;4976365;28;102811;-66
2024/04/07 10:26:55;;;;;;;7.25;2.13;;;;;;;24.68;36.95;98828.81;4955485;28;103173;-65
2024/04/07 10:29:25;;;;;;;7.50;1.65;;;;;;;24.91;36.77;98816.81;4976647;28;103208;-65
2024/04/07 10:31:50;;;;;;;8.82;1.80;;;;;;;25.08;36.43;98818.56;4973229;28;103269;-65
2024/04/07 10:34:16;;;;;;;9.85;2.28;;;;;;;25.52;34.93;98822.91;4954313;28;102803;-66
2024/04/07 10:36:53;;;;;;;8.30;2.03;;;;;;;25.04;35.92;98820.19;4970147;28;103360;-65
2024/04/07 10:39:23;;;;;;;9.02;1.90;;;;;;;24.69;35.85;98826.94;4955324;28;110043;-65
2024/04/07 10:41:50;;;;;;;8.02;1.90;;;;;;;24.30;36.94;98815.19;4973501;28;102757;-66
2024/04/07 10:44:16;;;;;;;6.03;1.50;;;;;;;23.85;36.68;98806.28;4973660;28;102751;-69
2024/04/07 10:46:43;;;;;;;12.43;2.10;;;;;;;23.95;37.16;98802.09;4951711;28;105348;-65
2024/04/07 10:49:10;;;;;;;8.95;1.85;;;;;;;23.25;37.65;98797.13;4971832;28;107786;-70
2024/04/07 10:51:38;;;;;;;8.70;1.77;;;;;;;23.02;38.09;98801.66;4973414;28;102833;-69
2024/04/07 10:54:04;;;;;;;7.93;1.75;;;;;;;22.85;38.80;98806.25;4963548;28;110278;-69
2024/04/07 10:56:35;;;;;;;10.85;1.88;;;;;;;23.76;39.43;98794.25;4946270;28;104645;-69
2024/04/07 10:59:02;;;;;;;8.27;1.80;;;;;;;24.30;37.09;98790.84;4971185;28;104524;-70
2024/04/07 11:01:30;;;;;;;7.72;1.52;;;;;;;24.16;37.22;98792.31;4972430;28;103255;-69
2024/04/07 11:03:57;;;;;;;11.40;1.55;;;;;;;24.21;37.27;98789.66;4969242;28;102797;-65
2024/04/07 11:06:24;;;;;;;8.93;1.60;;;;;;;24.79;36.40;98794.53;4955440;28;103359;-67
2024/04/07 11:08:51;;;;;;;12.23;1.80;;;;;;;25.20;36.00;98785.84;4973226;28;103753;-66
2024/04/07 11:11:16;;;;;;;7.18;1.52;;;;;;;24.72;34.63;98783.09;4971121;28;102902;-66
2024/04/07 11:13:46;;;;;;;5.75;1.40;;;;;;;25.87;34.91;98773.41;4973360;28;103204;-66
2024/04/07 11:16:12;;;;;;;9.50;1.40;;;;;;;25.84;35.68;98765.03;4956261;28;105434;-66
2024/04/07 11:18:39;;;;;;;6.97;1.55;;;;;;;26.14;35.19;98769.72;4958705;28;103103;-66
2024/04/07 11:21:06;;;;;;;11.55;1.92;;;;;;;25.12;36.23;98765.47;4973008;28;102740;-66
2024/04/07 11:23:35;;;;;;;5.63;1.40;;;;;;;25.29;37.23;98766.09;4972454;28;102833;-66
2024/04/07 11:26:07;;;;;;;9.48;1.60;;;;;;;24.92;35.95;98749.94;4985625;28;103268;-66
2024/04/07 11:28:33;;;;;;;5.57;1.98;;;;;;;24.76;37.27;98754.41;4982911;28;103916;-66